KAL212 EFHK-ESSA
Flight info
| Callsign | KAL212 |
|---|---|
| Flight time | 0h 31m |
| Altitude | 32000 |
| Route | ADIVO Y365 POGOK DCT RUNGA N872 XILAN |
| Aircraft | B77W/H-SDE1E2E3FGHIJ2J3J4J5M1RWXY/LB1D1 |
Departure
| Time | 2026-04-24 19:30 |
|---|---|
| Airport | Helsinki Vantaa Airport (EFHK) |
Arrival
| Time | 2026-04-24 20:02 |
|---|---|
| Airport | Stockholm-Arlanda Airport (ESSA) |
| Time | Latitude | Longitude | Altitude | Speed | Heading |
|---|---|---|---|---|---|
| 2026-04-24 19:08 | 60.31288 | 24.95647 | 167 ft | 0 kts | 317° |
| 2026-04-24 19:18 | 60.31285 | 24.95653 | 167 ft | 3 kts | 319° |
| 2026-04-24 19:18 | 60.31264 | 24.95686 | 168 ft | 4 kts | 317° |
| 2026-04-24 19:18 | 60.31248 | 24.95727 | 168 ft | 4 kts | 284° |
| 2026-04-24 19:18 | 60.31249 | 24.95776 | 168 ft | 4 kts | 242° |
| 2026-04-24 19:19 | 60.31258 | 24.95803 | 169 ft | 0 kts | 227° |
| 2026-04-24 19:23 | 60.31249 | 24.95783 | 169 ft | 10 kts | 228° |
| 2026-04-24 19:23 | 60.31153 | 24.95589 | 167 ft | 22 kts | 219° |
| 2026-04-24 19:23 | 60.31077 | 24.95452 | 166 ft | 22 kts | 225° |
| 2026-04-24 19:24 | 60.30996 | 24.95248 | 164 ft | 9 kts | 247° |
| 2026-04-24 19:24 | 60.31028 | 24.95134 | 163 ft | 11 kts | 318° |
| 2026-04-24 19:24 | 60.31087 | 24.95037 | 162 ft | 12 kts | 322° |
| 2026-04-24 19:24 | 60.31176 | 24.94907 | 161 ft | 17 kts | 320° |
| 2026-04-24 19:25 | 60.31203 | 24.94859 | 160 ft | 14 kts | 318° |
| 2026-04-24 19:25 | 60.31299 | 24.94678 | 159 ft | 17 kts | 305° |
| 2026-04-24 19:25 | 60.31228 | 24.94411 | 157 ft | 29 kts | 224° |
| 2026-04-24 19:25 | 60.31092 | 24.94116 | 155 ft | 25 kts | 227° |
| 2026-04-24 19:26 | 60.31041 | 24.93931 | 154 ft | 11 kts | 265° |
| 2026-04-24 19:26 | 60.31041 | 24.93897 | 154 ft | 0 kts | 274° |
| 2026-04-24 19:28 | 60.31064 | 24.93797 | 153 ft | 17 kts | 315° |
| 2026-04-24 19:28 | 60.31144 | 24.93736 | 151 ft | 1 kts | 6° |
| 2026-04-24 19:29 | 60.31214 | 24.93824 | 153 ft | 0 kts | 45° |
| 2026-04-24 19:29 | 60.31238 | 24.93874 | 154 ft | 19 kts | 47° |
| 2026-04-24 19:29 | 60.31451 | 24.94352 | 157 ft | 83 kts | 48° |
| 2026-04-24 19:30 | 60.32014 | 24.95586 | 165 ft | 153 kts | 47° |
| 2026-04-24 19:30 | 60.32819 | 24.97432 | 371 ft | 185 kts | 48° |
| 2026-04-24 19:30 | 60.33711 | 24.99491 | 803 ft | 204 kts | 46° |
| 2026-04-24 19:30 | 60.34634 | 25.01521 | 1797 ft | 195 kts | 43° |
| 2026-04-24 19:31 | 60.35582 | 25.03434 | 2626 ft | 192 kts | 40° |
| 2026-04-24 19:31 | 60.36478 | 25.05328 | 3500 ft | 184 kts | 43° |
| 2026-04-24 19:31 | 60.37352 | 25.07287 | 4003 ft | 196 kts | 43° |
| 2026-04-24 19:31 | 60.38359 | 25.09519 | 4043 ft | 234 kts | 43° |
| 2026-04-24 19:32 | 60.39558 | 25.11927 | 3999 ft | 245 kts | 31° |
| 2026-04-24 19:32 | 60.41138 | 25.12906 | 4015 ft | 236 kts | 0° |
| 2026-04-24 19:32 | 60.42777 | 25.12902 | 3985 ft | 238 kts | 359° |
| 2026-04-24 19:32 | 60.44450 | 25.12951 | 4008 ft | 243 kts | 359° |
| 2026-04-24 19:33 | 60.46131 | 25.13012 | 4513 ft | 246 kts | 359° |
| 2026-04-24 19:33 | 60.47822 | 25.12846 | 5404 ft | 243 kts | 345° |
| 2026-04-24 19:33 | 60.49292 | 25.11203 | 6306 ft | 245 kts | 318° |
| 2026-04-24 19:33 | 60.50247 | 25.08318 | 7216 ft | 252 kts | 293° |
| 2026-04-24 19:34 | 60.50477 | 25.04733 | 8055 ft | 264 kts | 271° |
| 2026-04-24 19:34 | 60.50031 | 25.01050 | 8850 ft | 274 kts | 256° |
| 2026-04-24 19:34 | 60.49345 | 24.97390 | 9643 ft | 280 kts | 255° |
| 2026-04-24 19:34 | 60.48618 | 24.93673 | 10281 ft | 291 kts | 255° |
| 2026-04-24 19:35 | 60.47840 | 24.89690 | 10488 ft | 318 kts | 254° |
| 2026-04-24 19:35 | 60.46991 | 24.85343 | 10729 ft | 344 kts | 254° |
| 2026-04-24 19:35 | 60.46107 | 24.80828 | 11442 ft | 355 kts | 254° |
| 2026-04-24 19:35 | 60.45187 | 24.76142 | 12418 ft | 360 kts | 254° |
| 2026-04-24 19:36 | 60.44260 | 24.71407 | 13535 ft | 364 kts | 254° |
| 2026-04-24 19:36 | 60.43325 | 24.66628 | 14515 ft | 367 kts | 254° |
| 2026-04-24 19:36 | 60.42384 | 24.61804 | 15511 ft | 370 kts | 254° |
| 2026-04-24 19:36 | 60.41435 | 24.56944 | 16475 ft | 374 kts | 254° |
| 2026-04-24 19:37 | 60.40475 | 24.52023 | 17462 ft | 378 kts | 254° |
| 2026-04-24 19:37 | 60.39504 | 24.47056 | 18373 ft | 382 kts | 254° |
| 2026-04-24 19:37 | 60.38520 | 24.42034 | 19191 ft | 386 kts | 254° |
| 2026-04-24 19:37 | 60.37536 | 24.37026 | 20004 ft | 391 kts | 254° |
| 2026-04-24 19:38 | 60.36525 | 24.31897 | 20806 ft | 395 kts | 254° |
| 2026-04-24 19:38 | 60.35502 | 24.26718 | 21601 ft | 399 kts | 253° |
| 2026-04-24 19:38 | 60.34465 | 24.21482 | 22394 ft | 404 kts | 253° |
| 2026-04-24 19:38 | 60.33413 | 24.16185 | 23158 ft | 408 kts | 253° |
| 2026-04-24 19:39 | 60.32352 | 24.10848 | 23802 ft | 413 kts | 252° |
| 2026-04-24 19:39 | 60.31272 | 24.05437 | 24315 ft | 419 kts | 252° |
| 2026-04-24 19:39 | 60.28492 | 23.86790 | 26366 ft | 425 kts | 261° |
| 2026-04-24 19:39 | 60.27876 | 23.80989 | 26523 ft | 428 kts | 261° |
| 2026-04-24 19:40 | 60.27254 | 23.75135 | 26671 ft | 428 kts | 261° |
| 2026-04-24 19:40 | 60.26623 | 23.69247 | 26823 ft | 431 kts | 261° |
| 2026-04-24 19:40 | 60.25982 | 23.63348 | 26976 ft | 433 kts | 261° |
| 2026-04-24 19:40 | 60.25331 | 23.57428 | 27122 ft | 434 kts | 260° |
| 2026-04-24 19:41 | 60.24672 | 23.51496 | 27262 ft | 435 kts | 260° |
| 2026-04-24 19:41 | 60.24008 | 23.45562 | 27411 ft | 435 kts | 260° |
| 2026-04-24 19:41 | 60.23339 | 23.39610 | 27559 ft | 437 kts | 260° |
| 2026-04-24 19:41 | 60.22664 | 23.33647 | 27823 ft | 438 kts | 259° |
| 2026-04-24 19:42 | 60.21717 | 23.25302 | 27807 ft | 443 kts | 259° |
| 2026-04-24 19:42 | 60.15038 | 22.67816 | 27908 ft | 444 kts | 258° |
| 2026-04-24 19:42 | 60.14324 | 22.61867 | 27853 ft | 445 kts | 258° |
| 2026-04-24 19:42 | 60.13599 | 22.55813 | 27808 ft | 446 kts | 258° |
| 2026-04-24 19:43 | 60.12873 | 22.49743 | 28039 ft | 450 kts | 258° |
| 2026-04-24 19:43 | 60.12142 | 22.43634 | 28703 ft | 450 kts | 258° |
| 2026-04-24 19:43 | 60.11410 | 22.37554 | 29524 ft | 447 kts | 258° |
| 2026-04-24 19:43 | 60.10676 | 22.31475 | 29822 ft | 451 kts | 258° |
| 2026-04-24 19:44 | 60.08926 | 22.17088 | 29802 ft | 445 kts | 258° |
| 2026-04-24 19:44 | 60.00715 | 21.51402 | 29925 ft | 458 kts | 257° |
| 2026-04-24 19:45 | 59.97964 | 21.30342 | 29794 ft | 436 kts | 256° |
| 2026-04-24 19:45 | 59.94132 | 21.03069 | 29898 ft | 452 kts | 256° |
| 2026-04-24 19:46 | 59.91204 | 20.82446 | 29298 ft | 440 kts | 256° |
| 2026-04-24 19:46 | 59.90371 | 20.76618 | 28749 ft | 435 kts | 256° |
| 2026-04-24 19:46 | 59.89547 | 20.70861 | 28176 ft | 430 kts | 256° |
| 2026-04-24 19:46 | 59.88723 | 20.65123 | 27638 ft | 433 kts | 256° |
| 2026-04-24 19:47 | 59.87898 | 20.59394 | 27072 ft | 439 kts | 256° |
| 2026-04-24 19:47 | 59.87049 | 20.53511 | 26509 ft | 444 kts | 256° |
| 2026-04-24 19:47 | 59.86208 | 20.47737 | 25908 ft | 425 kts | 256° |
| 2026-04-24 19:47 | 59.85389 | 20.42129 | 25411 ft | 421 kts | 256° |
| 2026-04-24 19:48 | 59.84584 | 20.36642 | 24843 ft | 405 kts | 257° |
| 2026-04-24 19:48 | 59.83806 | 20.31350 | 24346 ft | 394 kts | 257° |
| 2026-04-24 19:48 | 59.82289 | 20.21055 | 23351 ft | 382 kts | 257° |
| 2026-04-24 19:49 | 59.73588 | 19.62601 | 17392 ft | 332 kts | 258° |
| 2026-04-24 19:49 | 59.70269 | 19.38337 | 14989 ft | 367 kts | 257° |
| 2026-04-24 19:50 | 59.68147 | 19.23360 | 13731 ft | 381 kts | 257° |
| 2026-04-24 19:50 | 59.67432 | 19.18337 | 13257 ft | 376 kts | 257° |
| 2026-04-24 19:51 | 59.66063 | 19.08774 | 13023 ft | 346 kts | 257° |
| 2026-04-24 19:51 | 59.65421 | 19.04284 | 12890 ft | 333 kts | 257° |
| 2026-04-24 19:52 | 59.64209 | 18.95762 | 12415 ft | 317 kts | 257° |
| 2026-04-24 19:52 | 59.63613 | 18.91578 | 12002 ft | 316 kts | 257° |
| 2026-04-24 19:52 | 59.63019 | 18.87404 | 11546 ft | 316 kts | 257° |
| 2026-04-24 19:52 | 59.62423 | 18.83236 | 11109 ft | 315 kts | 257° |
| 2026-04-24 19:53 | 59.61827 | 18.79085 | 10704 ft | 314 kts | 257° |
| 2026-04-24 19:53 | 59.61231 | 18.74950 | 10306 ft | 312 kts | 256° |
| 2026-04-24 19:53 | 59.60569 | 18.66639 | 9565 ft | 292 kts | 267° |
| 2026-04-24 19:54 | 59.60409 | 18.62811 | 9260 ft | 269 kts | 267° |
| 2026-04-24 19:54 | 59.60261 | 18.59275 | 8771 ft | 256 kts | 268° |
| 2026-04-24 19:54 | 59.60113 | 18.55847 | 8271 ft | 246 kts | 268° |
| 2026-04-24 19:54 | 59.59966 | 18.52545 | 7759 ft | 240 kts | 268° |
| 2026-04-24 19:55 | 59.59867 | 18.50378 | 7577 ft | 238 kts | 268° |
| 2026-04-24 19:55 | 59.59786 | 18.46108 | 7163 ft | 228 kts | 284° |
| 2026-04-24 19:55 | 59.60563 | 18.43477 | 6732 ft | 226 kts | 323° |
| 2026-04-24 19:55 | 59.62020 | 18.42490 | 6431 ft | 223 kts | 352° |
| 2026-04-24 19:56 | 59.63519 | 18.41980 | 5960 ft | 218 kts | 334° |
| 2026-04-24 19:56 | 59.64841 | 18.40521 | 5515 ft | 218 kts | 327° |
| 2026-04-24 19:56 | 59.66120 | 18.39056 | 5300 ft | 211 kts | 328° |
| 2026-04-24 19:56 | 59.67259 | 18.37395 | 5072 ft | 198 kts | 306° |
| 2026-04-24 19:57 | 59.67724 | 18.34904 | 4735 ft | 194 kts | 277° |
| 2026-04-24 19:57 | 59.67828 | 18.32226 | 4324 ft | 196 kts | 276° |
| 2026-04-24 19:57 | 59.67942 | 18.29617 | 4168 ft | 184 kts | 276° |
| 2026-04-24 19:57 | 59.68073 | 18.27171 | 3885 ft | 175 kts | 284° |
| 2026-04-24 19:58 | 59.68460 | 18.24962 | 3606 ft | 165 kts | 291° |
| 2026-04-24 19:58 | 59.68865 | 18.22888 | 3314 ft | 157 kts | 290° |
| 2026-04-24 19:58 | 59.69291 | 18.20964 | 2851 ft | 150 kts | 285° |
| 2026-04-24 19:58 | 59.69231 | 18.18988 | 2465 ft | 153 kts | 254° |
| 2026-04-24 19:59 | 59.68944 | 18.16920 | 2367 ft | 157 kts | 257° |
| 2026-04-24 19:59 | 59.68696 | 18.14888 | 2135 ft | 151 kts | 257° |
| 2026-04-24 19:59 | 59.68462 | 18.12914 | 1738 ft | 144 kts | 257° |
| 2026-04-24 19:59 | 59.68258 | 18.11035 | 1296 ft | 136 kts | 257° |
| 2026-04-24 20:00 | 59.68076 | 18.09243 | 1151 ft | 142 kts | 257° |
| 2026-04-24 20:00 | 59.67881 | 18.07333 | 1065 ft | 139 kts | 254° |
| 2026-04-24 20:00 | 59.67559 | 18.05515 | 1016 ft | 144 kts | 249° |
| 2026-04-24 20:00 | 59.67226 | 18.03606 | 757 ft | 150 kts | 248° |
| 2026-04-24 20:01 | 59.66896 | 18.01641 | 530 ft | 148 kts | 251° |
| 2026-04-24 20:01 | 59.66616 | 17.99680 | 330 ft | 150 kts | 251° |
| 2026-04-24 20:01 | 59.66368 | 17.97700 | 177 ft | 147 kts | 250° |
| 2026-04-24 20:01 | 59.66124 | 17.95852 | 145 ft | 129 kts | 256° |
| 2026-04-24 20:02 | 59.65989 | 17.94773 | 142 ft | 110 kts | 254° |
| 2026-04-24 20:02 | 59.65829 | 17.93637 | 143 ft | 22 kts | 214° |
| 2026-04-24 20:02 | 59.65785 | 17.93600 | 143 ft | 0 kts | 213° |
| 2026-04-24 20:02 | 59.65784 | 17.93599 | 143 ft | 0 kts | 213° |
| 2026-04-24 20:03 | 59.65780 | 17.93593 | 143 ft | 1 kts | 211° |
| 2026-04-24 20:03 | 59.65768 | 17.93579 | 143 ft | 5 kts | 215° |
| 2026-04-24 20:03 | 59.65713 | 17.93483 | 143 ft | 13 kts | 213° |
| 2026-04-24 20:03 | 59.65694 | 17.93471 | 143 ft | 0 kts | 189° |
| 2026-04-24 20:04 | 59.65673 | 17.93452 | 143 ft | 12 kts | 213° |
| 2026-04-24 20:04 | 59.65611 | 17.93340 | 143 ft | 7 kts | 211° |
| 2026-04-24 20:04 | 59.65567 | 17.93327 | 143 ft | 11 kts | 167° |
| 2026-04-24 20:05 | 59.65554 | 17.93483 | 142 ft | 14 kts | 69° |
| 2026-04-24 20:05 | 59.65576 | 17.93676 | 142 ft | 14 kts | 80° |
| 2026-04-24 20:05 | 59.65572 | 17.93860 | 142 ft | 11 kts | 119° |
| 2026-04-24 20:05 | 59.65514 | 17.93878 | 142 ft | 8 kts | 216° |
| 2026-04-24 20:06 | 59.65500 | 17.93846 | 142 ft | 0 kts | 235° |
| 2026-04-24 20:06 | 59.65464 | 17.93843 | 142 ft | 7 kts | 154° |
| 2026-04-24 20:06 | 59.65428 | 17.93904 | 142 ft | 7 kts | 139° |
| 2026-04-24 20:06 | 59.65386 | 17.93943 | 142 ft | 7 kts | 180° |
| 2026-04-24 20:07 | 59.65374 | 17.93931 | 142 ft | 3 kts | 216° |
| 2026-04-24 20:07 | 59.65356 | 17.93877 | 142 ft | 4 kts | 243° |
| 2026-04-24 20:07 | 59.65350 | 17.93842 | 142 ft | 0 kts | 253° |
| 2026-04-24 20:07 | 59.65349 | 17.93832 | 142 ft | 1 kts | 254° |
| 2026-04-24 20:08 | 59.65348 | 17.93830 | 142 ft | 0 kts | 254° |
| 2026-04-24 20:08 | 59.65348 | 17.93829 | 142 ft | 0 kts | 254° |